Terminal Aerodrome Forecast
Issued by NWS Kansas City/Pleasant Hill, MO

Home | Current Version | Previous Version | Text Only | Print | Product List | Glossary On
Versions: 1 2 3 4 5 6 7 8 9 10 11 12
596
FTUS43 KEAX 250520
TAFMCI
TAF
KMCI 250520Z 2506/2606 07005KT P6SM VCTS SCT050CB BKN100
     FM250800 07007KT P6SM BKN150
     FM251400 07007KT P6SM BKN150=

USA.gov is the U.S. government's official web portal to all federal, state and local government web resources and services.